Americus, Georgia
Current Conditions -  °F | °C
As of 2:10 PM on Friday 21 Nov 2014 (Local Time) from KACJ Reporting Station
Clear Clear  
Wind Chill: 64°   Ceiling: Unl
Heat Index: 64°   Visibility: 10mi
Dew Point: 39°   Wind: 9mph
Humidity: 40%   Direction: 60°ENE
Pressure: 30.36"   Gusts: NA
Location:  32.07°N, 84.23°W
Report Text: KACJ 211910Z AUTO 06008KT 10SM CLR 18/04 A3036 RMK AO2
Loading
Personal Weather Stations






























Interactive Weather Map New forecast layout! Learn more

10-Day Weather Forecast

Advertisements
Track Severe Weather on mobile